createdAt,value
2018-12-22T00:00:15.408Z,100539.75
2018-12-22T00:02:42.961Z,100549.52
2018-12-22T00:05:10.504Z,100547.12
2018-12-22T00:07:38.177Z,100542.73
2018-12-22T00:10:05.757Z,100545.02
2018-12-22T00:12:33.367Z,100539.70
2018-12-22T00:15:01.438Z,100545.78
2018-12-22T00:17:28.981Z,100557.82
2018-12-22T00:19:56.539Z,100546.14
2018-12-22T00:22:24.217Z,100544.23
2018-12-22T00:24:51.793Z,100540.86
2018-12-22T00:27:19.360Z,100539.03
2018-12-22T00:29:47.160Z,100534.09
2018-12-22T00:32:14.699Z,100535.91
2018-12-22T00:34:42.303Z,100529.52
2018-12-22T00:37:10.937Z,100534.94
2018-12-22T00:39:38.493Z,100534.77
2018-12-22T00:42:06.066Z,100538.76
2018-12-22T00:44:34.595Z,100533.84
2018-12-22T00:47:02.150Z,100533.03
2018-12-22T00:49:29.700Z,100529.83
2018-12-22T00:51:57.380Z,100529.09
2018-12-22T00:54:24.951Z,100522.16
2018-12-22T00:56:52.512Z,100522.46
2018-12-22T00:59:20.100Z,100517.81
2018-12-22T01:01:47.673Z,100512.95
2018-12-22T01:04:15.242Z,100511.37
2018-12-22T01:06:42.942Z,100515.72
2018-12-22T01:09:10.510Z,100515.13
2018-12-22T01:11:38.041Z,100513.98
2018-12-22T01:14:05.684Z,100519.42
2018-12-22T01:16:33.270Z,100510.70
2018-12-22T01:19:00.784Z,100514.17
2018-12-22T01:21:28.398Z,100515.40
2018-12-22T01:23:55.950Z,100513.16
2018-12-22T01:26:23.529Z,100515.23
2018-12-22T01:28:51.187Z,100518.05
2018-12-22T01:31:18.738Z,100512.44
2018-12-22T01:33:46.280Z,100512.33
2018-12-22T01:36:13.889Z,100506.92
2018-12-22T01:38:41.444Z,100509.45
2018-12-22T01:41:08.977Z,100507.35
2018-12-22T01:43:36.702Z,100502.74
2018-12-22T01:46:04.293Z,100496.61
2018-12-22T01:48:31.860Z,100489.63
2018-12-22T01:50:59.553Z,100489.16
2018-12-22T01:53:27.110Z,100483.50
2018-12-22T01:55:54.656Z,100484.77
2018-12-22T01:58:22.268Z,100477.88
2018-12-22T02:00:49.816Z,100467.70
2018-12-22T02:03:17.417Z,100474.42
2018-12-22T02:05:45.153Z,100468.14
2018-12-22T02:08:12.699Z,100468.89
2018-12-22T02:10:40.245Z,100461.66
2018-12-22T02:13:07.810Z,100456.68
2018-12-22T02:15:35.386Z,100454.77
2018-12-22T02:18:03.019Z,100444.67
2018-12-22T02:20:30.713Z,100435.16
2018-12-22T02:22:58.241Z,100436.52
2018-12-22T02:25:25.796Z,100438.41
2018-12-22T02:27:53.588Z,100436.92
2018-12-22T02:30:21.168Z,100429.72
2018-12-22T02:32:48.688Z,100433.22
2018-12-22T02:35:16.637Z,100432.91
2018-12-22T02:37:44.225Z,100424.47
2018-12-22T02:40:11.792Z,100426.06
2018-12-22T02:42:54.670Z,100432.59
2018-12-22T02:45:22.236Z,100427.61
2018-12-22T02:47:49.780Z,100435.87
2018-12-22T02:50:17.503Z,100430.41
2018-12-22T02:52:45.125Z,100424.29
2018-12-22T02:55:12.688Z,100421.23
2018-12-22T02:57:40.412Z,100421.73
2018-12-22T03:00:08.047Z,100430.39
2018-12-22T03:02:35.627Z,100434.35
2018-12-22T03:05:03.406Z,100427.80
2018-12-22T03:07:30.928Z,100422.73
2018-12-22T03:09:58.485Z,100417.28
2018-12-22T03:12:30.604Z,100414.69
2018-12-22T03:14:58.289Z,100403.33
2018-12-22T03:17:25.797Z,100399.48
2018-12-22T03:19:53.814Z,100404.00
2018-12-22T03:22:21.370Z,100391.75
2018-12-22T03:24:48.918Z,100390.13
2018-12-22T03:27:16.699Z,100394.31
2018-12-22T03:29:44.277Z,100400.11
2018-12-22T03:32:11.835Z,100396.27
2018-12-22T03:34:39.774Z,100393.36
2018-12-22T03:37:07.329Z,100386.79
2018-12-22T03:39:34.879Z,100394.50
2018-12-22T03:42:02.693Z,100393.88
2018-12-22T03:44:30.236Z,100400.86
2018-12-22T03:46:57.797Z,100402.23
2018-12-22T03:49:25.496Z,100392.48
2018-12-22T03:51:53.068Z,100386.67
2018-12-22T03:54:20.642Z,100390.12
2018-12-22T03:56:48.334Z,100388.28
2018-12-22T03:59:24.543Z,100408.53
2018-12-22T04:01:43.521Z,100407.63
2018-12-22T04:04:11.204Z,100393.48
2018-12-22T04:06:39.193Z,100396.50
2018-12-22T04:09:09.010Z,100390.94
2018-12-22T04:11:34.477Z,100382.67
2018-12-22T04:14:02.086Z,100383.56
2018-12-22T04:16:29.654Z,100389.77
2018-12-22T04:18:57.242Z,100391.57
2018-12-22T04:21:24.804Z,100391.41
2018-12-22T04:23:52.387Z,100396.70
2018-12-22T04:26:20.257Z,100411.20
2018-12-22T04:28:47.812Z,100418.44
2018-12-22T04:31:15.358Z,100416.08
2018-12-22T04:33:43.232Z,100410.49
2018-12-22T04:36:10.768Z,100410.27
2018-12-22T04:38:38.334Z,100396.67
2018-12-22T04:41:06.965Z,100390.69
2018-12-22T04:43:34.560Z,100391.18
2018-12-22T04:46:02.097Z,100391.41
2018-12-22T04:48:29.807Z,100379.50
2018-12-22T04:50:57.366Z,100377.50
2018-12-22T04:53:24.914Z,100372.91
2018-12-22T04:55:52.601Z,100383.67
2018-12-22T04:58:20.150Z,100384.78
2018-12-22T05:00:47.708Z,100387.89
2018-12-22T05:03:15.305Z,100393.45
2018-12-22T05:05:42.846Z,100393.59
2018-12-22T05:08:10.434Z,100397.27
2018-12-22T05:10:39.211Z,100391.53
2018-12-22T05:13:06.737Z,100402.16
2018-12-22T05:15:34.293Z,100400.36
2018-12-22T05:18:01.948Z,100394.72
2018-12-22T05:20:29.515Z,100377.99
2018-12-22T05:22:57.090Z,100372.98
2018-12-22T05:25:24.819Z,100376.05
2018-12-22T05:27:52.359Z,100375.33
2018-12-22T05:30:19.899Z,100380.48
2018-12-22T05:32:49.433Z,100386.37
2018-12-22T05:35:16.988Z,100377.52
2018-12-22T05:37:44.553Z,100387.71
2018-12-22T05:40:12.452Z,100390.06
2018-12-22T05:42:40.019Z,100402.64
2018-12-22T05:45:07.572Z,100396.66
2018-12-22T05:47:35.449Z,100399.58
2018-12-22T05:50:03.011Z,100395.39
2018-12-22T05:52:30.577Z,100400.13
2018-12-22T05:54:58.326Z,100414.45
2018-12-22T05:57:25.863Z,100398.70
2018-12-22T06:00:00.404Z,100394.08
2018-12-22T06:02:21.071Z,100388.92
2018-12-22T06:04:48.627Z,100388.73
2018-12-22T06:07:16.227Z,100392.47
2018-12-22T06:09:43.943Z,100391.75
2018-12-22T06:12:11.521Z,100394.16
2018-12-22T06:14:39.044Z,100402.11
2018-12-22T06:17:06.742Z,100403.92
2018-12-22T06:19:34.310Z,100398.92
2018-12-22T06:22:01.849Z,100404.86
2018-12-22T06:24:29.762Z,100414.24
2018-12-22T06:26:57.323Z,100407.09
2018-12-22T06:29:24.844Z,100410.69
2018-12-22T06:31:52.956Z,100409.78
2018-12-22T06:34:20.501Z,100419.17
2018-12-22T06:36:48.080Z,100416.75
2018-12-22T06:39:15.942Z,100426.71
2018-12-22T06:41:43.544Z,100426.57
2018-12-22T06:44:11.129Z,100431.62
2018-12-22T06:46:38.876Z,100438.64
2018-12-22T06:49:06.445Z,100428.62
2018-12-22T06:51:34.014Z,100429.83
2018-12-22T06:54:01.864Z,100434.59
2018-12-22T06:56:29.441Z,100427.73
2018-12-22T06:58:57.030Z,100428.34
2018-12-22T07:01:24.834Z,100430.36
2018-12-22T07:03:52.417Z,100428.25
2018-12-22T07:06:20.013Z,100427.20
2018-12-22T07:08:47.676Z,100439.97
2018-12-22T07:11:15.215Z,100451.03
2018-12-22T07:13:42.768Z,100452.75
2018-12-22T07:16:10.410Z,100443.44
2018-12-22T07:18:37.949Z,100459.34
2018-12-22T07:21:05.517Z,100462.64
2018-12-22T07:23:33.309Z,100453.31
2018-12-22T07:26:00.868Z,100444.89
2018-12-22T07:28:28.428Z,100454.30
2018-12-22T07:30:56.239Z,100451.98
2018-12-22T07:33:23.796Z,100446.13
2018-12-22T07:35:51.381Z,100451.28
2018-12-22T07:38:19.285Z,100444.83
2018-12-22T07:40:46.836Z,100443.55
2018-12-22T07:43:14.378Z,100442.08
2018-12-22T07:45:42.295Z,100435.95
2018-12-22T07:48:09.861Z,100448.50
2018-12-22T07:50:37.409Z,100434.13
2018-12-22T07:53:05.107Z,100445.05
2018-12-22T07:55:32.703Z,100444.78
2018-12-22T07:58:00.257Z,100468.78
2018-12-22T08:00:34.827Z,100472.13
2018-12-22T08:02:55.556Z,100481.81
2018-12-22T08:05:23.132Z,100487.27
2018-12-22T08:07:50.836Z,100486.45
2018-12-22T08:10:18.403Z,100470.25
2018-12-22T08:12:53.669Z,100456.05
2018-12-22T08:15:21.237Z,100457.27
2018-12-22T08:17:48.787Z,100457.29
2018-12-22T08:20:16.481Z,100445.67
2018-12-22T08:22:44.021Z,100450.67
2018-12-22T08:25:11.590Z,100455.76
2018-12-22T08:27:39.513Z,100455.54
2018-12-22T08:30:07.127Z,100444.91
2018-12-22T08:32:34.720Z,100455.36
2018-12-22T08:35:02.617Z,100454.97
2018-12-22T08:37:30.194Z,100451.88
2018-12-22T08:39:57.736Z,100444.98
2018-12-22T08:42:25.347Z,100448.05
2018-12-22T08:44:52.891Z,100439.09
2018-12-22T08:47:20.466Z,100434.50
2018-12-22T08:49:48.193Z,100444.50
2018-12-22T08:52:15.720Z,100449.29
2018-12-22T08:54:43.270Z,100442.08
2018-12-22T08:57:10.972Z,100432.64
2018-12-22T08:59:38.548Z,100428.86
2018-12-22T09:02:06.123Z,100433.44
2018-12-22T09:04:34.025Z,100432.77
2018-12-22T09:07:01.605Z,100430.25
2018-12-22T09:09:29.155Z,100422.28
2018-12-22T09:11:56.874Z,100419.11
2018-12-22T09:14:24.441Z,100424.72
2018-12-22T09:16:52.012Z,100413.06
2018-12-22T09:19:20.018Z,100404.63
2018-12-22T09:21:47.570Z,100395.63
2018-12-22T09:24:15.131Z,100393.28
2018-12-22T09:26:42.835Z,100384.28
2018-12-22T09:29:10.403Z,100391.44
2018-12-22T09:31:37.954Z,100392.56
2018-12-22T09:34:13.044Z,100381.61
2018-12-22T09:36:33.150Z,100380.16
2018-12-22T09:39:00.709Z,100367.62
2018-12-22T09:41:28.339Z,100370.03
2018-12-22T09:43:55.902Z,100370.13
2018-12-22T09:46:23.447Z,100365.09
2018-12-22T09:48:52.224Z,100357.04
2018-12-22T09:51:19.802Z,100350.28
2018-12-22T09:53:47.353Z,100349.75
2018-12-22T09:56:14.954Z,100347.72
2018-12-22T09:58:42.509Z,100349.59
2018-12-22T10:01:10.064Z,100349.09
2018-12-22T10:03:37.754Z,100353.16
2018-12-22T10:06:05.319Z,100333.48
2018-12-22T10:08:32.901Z,100335.16
2018-12-22T10:11:00.599Z,100338.10
2018-12-22T10:13:28.486Z,100330.73
2018-12-22T10:15:56.049Z,100330.78
2018-12-22T10:18:23.686Z,100330.41
2018-12-22T10:20:51.218Z,100318.30
2018-12-22T10:23:18.784Z,100306.29
2018-12-22T10:25:46.521Z,100299.81
2018-12-22T10:28:14.076Z,100299.24
2018-12-22T10:30:41.620Z,100288.31
2018-12-22T10:33:09.523Z,100281.61
2018-12-22T10:35:37.092Z,100272.03
2018-12-22T10:38:04.630Z,100268.08
2018-12-22T10:40:32.323Z,100273.46
2018-12-22T10:42:59.874Z,100269.78
2018-12-22T10:45:27.426Z,100267.44
2018-12-22T10:47:55.005Z,100269.62
2018-12-22T10:50:22.529Z,100260.93
2018-12-22T10:52:54.923Z,100270.17
2018-12-22T10:55:22.505Z,100269.03
2018-12-22T10:57:50.072Z,100267.60
2018-12-22T11:00:17.774Z,100252.33
2018-12-22T11:02:45.353Z,100243.45
2018-12-22T11:05:12.957Z,100241.64
2018-12-22T11:07:40.663Z,100242.09
2018-12-22T11:10:08.340Z,100248.13
2018-12-22T11:12:35.897Z,100233.67
2018-12-22T11:15:03.597Z,100237.67
2018-12-22T11:17:31.181Z,100239.88
2018-12-22T11:19:58.705Z,100235.17
2018-12-22T11:22:39.312Z,100222.47
2018-12-22T11:25:10.457Z,100211.52
2018-12-22T11:27:38.016Z,100214.06
2018-12-22T11:30:05.843Z,100208.80
2018-12-22T11:32:33.385Z,100210.80
2018-12-22T11:35:00.992Z,100214.09
2018-12-22T11:37:28.696Z,100214.08
2018-12-22T11:39:56.263Z,100221.84
2018-12-22T11:42:36.311Z,100210.31
2018-12-22T11:45:03.950Z,100211.62
2018-12-22T11:47:31.557Z,100212.91
2018-12-22T11:49:59.244Z,100206.88
2018-12-22T11:52:26.797Z,100210.12
2018-12-22T11:54:54.347Z,100210.65
2018-12-22T11:57:22.249Z,100207.98
2018-12-22T11:59:49.807Z,100206.59
2018-12-22T12:02:17.392Z,100195.32
2018-12-22T12:04:44.957Z,100186.74
2018-12-22T12:07:12.521Z,100182.61
2018-12-22T12:09:40.098Z,100186.32
2018-12-22T12:12:08.043Z,100189.88
2018-12-22T12:14:35.654Z,100175.97
2018-12-22T12:17:03.248Z,100180.54
2018-12-22T12:19:31.129Z,100174.39
2018-12-22T12:21:58.697Z,100164.81
2018-12-22T12:24:26.294Z,100171.27
2018-12-22T12:26:54.055Z,100177.45
2018-12-22T12:29:21.609Z,100171.70
2018-12-22T12:31:52.200Z,100167.91
2018-12-22T12:34:17.213Z,100163.27
2018-12-22T12:36:44.772Z,100158.56
2018-12-22T12:39:12.346Z,100146.13
2018-12-22T12:41:39.985Z,100148.64
2018-12-22T12:44:07.561Z,100146.09
2018-12-22T12:46:36.037Z,100148.13
2018-12-22T12:49:03.908Z,100143.42
2018-12-22T12:51:31.473Z,100139.95
2018-12-22T12:53:59.069Z,100145.48
2018-12-22T12:56:26.903Z,100150.62
2018-12-22T12:58:54.485Z,100146.52
2018-12-22T13:01:22.025Z,100138.56
2018-12-22T13:03:49.826Z,100134.62
2018-12-22T13:06:17.396Z,100132.05
2018-12-22T13:08:44.978Z,100135.98
2018-12-22T13:11:12.731Z,100137.56
2018-12-22T13:13:40.377Z,100147.39
2018-12-22T13:16:07.949Z,100153.75
2018-12-22T13:18:35.680Z,100144.08
2018-12-22T13:21:03.292Z,100142.48
2018-12-22T13:23:30.851Z,100142.48
2018-12-22T13:25:58.587Z,100132.92
2018-12-22T13:28:26.155Z,100128.78
2018-12-22T13:30:53.734Z,100127.27
2018-12-22T13:33:21.680Z,100122.01
2018-12-22T13:35:48.971Z,100122.09
2018-12-22T13:38:16.544Z,100122.63
2018-12-22T13:40:44.501Z,100119.17
2018-12-22T13:43:12.085Z,100123.94
2018-12-22T13:45:39.655Z,100128.48
2018-12-22T13:48:07.604Z,100137.62
2018-12-22T13:50:35.042Z,100143.97
2018-12-22T13:53:02.556Z,100135.44
2018-12-22T13:55:30.233Z,100136.28
2018-12-22T13:57:57.876Z,100139.09
2018-12-22T14:00:25.486Z,100148.03
2018-12-22T14:02:53.208Z,100145.28
2018-12-22T14:05:22.337Z,100135.13
2018-12-22T14:07:49.896Z,100137.95
2018-12-22T14:10:17.677Z,100142.27
2018-12-22T14:12:45.259Z,100137.69
2018-12-22T14:15:14.796Z,100141.80
2018-12-22T14:17:42.605Z,100148.48
2018-12-22T14:20:10.206Z,100139.94
2018-12-22T14:22:39.855Z,100141.48
2018-12-22T14:25:09.168Z,100138.17
2018-12-22T14:27:36.732Z,100132.71
2018-12-22T14:30:04.318Z,100135.08
2018-12-22T14:32:32.037Z,100134.58
2018-12-22T14:34:59.659Z,100131.67
2018-12-22T14:37:27.209Z,100133.42
2018-12-22T14:39:55.125Z,100132.50
2018-12-22T14:42:22.686Z,100129.91
2018-12-22T14:44:50.237Z,100127.64
2018-12-22T14:47:18.234Z,100129.30
2018-12-22T14:49:45.733Z,100123.95
2018-12-22T14:52:13.315Z,100113.42
2018-12-22T14:54:40.946Z,100125.11
2018-12-22T14:57:08.527Z,100115.59
2018-12-22T14:59:36.066Z,100114.45
2018-12-22T15:02:04.200Z,100119.53
2018-12-22T15:04:33.830Z,100114.05
2018-12-22T15:06:59.485Z,100116.64
2018-12-22T15:09:27.186Z,100123.13
2018-12-22T15:11:54.770Z,100123.48
2018-12-22T15:14:22.340Z,100124.87
2018-12-22T15:16:50.262Z,100122.59
2018-12-22T15:19:17.863Z,100117.95
2018-12-22T15:21:45.453Z,100117.44
2018-12-22T15:24:13.073Z,100110.47
2018-12-22T15:26:40.625Z,100107.63
2018-12-22T15:29:08.185Z,100114.15
2018-12-22T15:31:36.045Z,100112.77
2018-12-22T15:34:03.638Z,100118.03
2018-12-22T15:36:31.249Z,100107.39
2018-12-22T15:38:58.887Z,100107.02
2018-12-22T15:41:26.447Z,100103.12
2018-12-22T15:43:54.031Z,100103.91
2018-12-22T15:46:21.696Z,100109.75
2018-12-22T15:48:49.269Z,100107.33
2018-12-22T15:51:16.806Z,100102.42
2018-12-22T15:53:44.424Z,100103.76
2018-12-22T15:56:12.004Z,100108.03
2018-12-22T15:58:39.578Z,100105.19
2018-12-22T16:01:07.501Z,100107.37
2018-12-22T16:03:35.117Z,100104.05
2018-12-22T16:06:02.703Z,100113.27
2018-12-22T16:08:30.444Z,100106.77
2018-12-22T16:10:58.001Z,100112.81
2018-12-22T16:13:25.537Z,100114.84
2018-12-22T16:15:53.274Z,100108.20
2018-12-22T16:18:20.894Z,100112.81
2018-12-22T16:20:48.490Z,100116.23
2018-12-22T16:23:16.232Z,100108.76
2018-12-22T16:25:43.807Z,100122.52
2018-12-22T16:28:11.420Z,100127.34
2018-12-22T16:30:40.252Z,100126.45
2018-12-22T16:33:07.828Z,100123.34
2018-12-22T16:35:35.397Z,100118.57
2018-12-22T16:38:03.004Z,100109.42
2018-12-22T16:40:30.591Z,100117.91
2018-12-22T16:42:58.155Z,100123.05
2018-12-22T16:45:25.823Z,100125.63
2018-12-22T16:47:53.404Z,100120.22
2018-12-22T16:50:20.938Z,100117.28
2018-12-22T16:52:48.832Z,100120.03
2018-12-22T16:55:16.451Z,100119.06
2018-12-22T16:57:56.837Z,100115.81
2018-12-22T17:00:26.212Z,100116.33
2018-12-22T17:02:53.820Z,100120.70
2018-12-22T17:05:21.775Z,100129.30
2018-12-22T17:07:49.382Z,100129.55
2018-12-22T17:10:16.975Z,100126.05
2018-12-22T17:12:58.093Z,100134.47
2018-12-22T17:15:25.695Z,100136.77
2018-12-22T17:17:53.236Z,100128.22
2018-12-22T17:20:21.097Z,100131.27
2018-12-22T17:22:54.385Z,100130.99
2018-12-22T17:25:22.334Z,100122.88
2018-12-22T17:27:49.890Z,100119.47
2018-12-22T17:30:17.460Z,100112.63
2018-12-22T17:32:45.249Z,100114.23
2018-12-22T17:35:12.875Z,100104.80
2018-12-22T17:37:40.405Z,100110.56
2018-12-22T17:40:09.721Z,100109.95
2018-12-22T17:42:42.103Z,100108.16
2018-12-22T17:45:09.773Z,100106.75
2018-12-22T17:47:37.324Z,100102.77
2018-12-22T17:50:05.028Z,100106.59
2018-12-22T17:52:33.999Z,100112.96
2018-12-22T17:55:01.594Z,100111.19
2018-12-22T17:57:29.229Z,100106.42
2018-12-22T17:59:56.946Z,100106.48
2018-12-22T18:02:24.584Z,100105.01
2018-12-22T18:04:52.129Z,100110.72
2018-12-22T18:07:19.952Z,100108.89
2018-12-22T18:09:47.546Z,100103.03
2018-12-22T18:12:15.104Z,100109.09
2018-12-22T18:14:43.050Z,100102.01
2018-12-22T18:17:10.607Z,100103.30
2018-12-22T18:19:38.197Z,100102.09
2018-12-22T18:22:06.026Z,100101.95
2018-12-22T18:24:33.612Z,100109.62
2018-12-22T18:27:01.166Z,100107.38
2018-12-22T18:29:28.806Z,100111.26
2018-12-22T18:31:56.366Z,100111.00
2018-12-22T18:34:23.909Z,100117.63
2018-12-22T18:36:51.792Z,100114.03
2018-12-22T18:39:19.356Z,100109.57
2018-12-22T18:41:46.921Z,100106.56
2018-12-22T18:44:14.646Z,100105.45
2018-12-22T18:46:42.189Z,100101.94
2018-12-22T18:49:09.732Z,100098.41
2018-12-22T18:51:37.641Z,100088.00
2018-12-22T18:54:05.202Z,100081.89
2018-12-22T18:56:32.808Z,100075.35
2018-12-22T18:59:00.499Z,100075.69
2018-12-22T19:01:28.081Z,100075.88
2018-12-22T19:03:55.653Z,100072.70
2018-12-22T19:06:23.423Z,100072.20
2018-12-22T19:08:50.979Z,100078.44
2018-12-22T19:11:18.707Z,100075.50
2018-12-22T19:13:46.400Z,100083.95
2018-12-22T19:16:13.965Z,100085.88
2018-12-22T19:18:41.530Z,100091.45
2018-12-22T19:21:09.251Z,100097.64
2018-12-22T19:23:36.818Z,100100.23
2018-12-22T19:26:04.392Z,100101.83
2018-12-22T19:28:32.193Z,100095.20
2018-12-22T19:30:59.771Z,100098.83
2018-12-22T19:33:27.346Z,100094.73
2018-12-22T19:35:55.005Z,100087.53
2018-12-22T19:38:22.563Z,100092.51
2018-12-22T19:40:50.149Z,100091.31
2018-12-22T19:43:17.874Z,100091.88
2018-12-22T19:45:45.467Z,100091.83
2018-12-22T19:48:13.104Z,100097.22
2018-12-22T19:50:40.882Z,100097.31
2018-12-22T19:53:08.456Z,100082.80
2018-12-22T19:55:36.029Z,100077.63
2018-12-22T19:58:04.151Z,100085.33
2018-12-22T20:00:31.713Z,100076.15
2018-12-22T20:02:59.292Z,100065.47
2018-12-22T20:05:26.901Z,100069.64
2018-12-22T20:07:54.456Z,100081.37
2018-12-22T20:10:22.027Z,100077.95
2018-12-22T20:12:50.041Z,100076.67
2018-12-22T20:15:17.618Z,100077.11
2018-12-22T20:17:45.193Z,100070.39
2018-12-22T20:20:13.018Z,100061.09
2018-12-22T20:22:40.581Z,100061.88
2018-12-22T20:25:08.192Z,100066.63
2018-12-22T20:27:35.922Z,100067.05
2018-12-22T20:30:03.548Z,100072.62
2018-12-22T20:32:31.117Z,100081.02
2018-12-22T20:34:58.921Z,100069.28
2018-12-22T20:37:26.490Z,100082.25
2018-12-22T20:39:54.067Z,100071.09
2018-12-22T20:42:21.769Z,100072.78
2018-12-22T20:44:49.321Z,100078.73
2018-12-22T20:47:16.969Z,100075.34
2018-12-22T20:49:44.560Z,100067.75
2018-12-22T20:52:12.115Z,100070.92
2018-12-22T20:54:39.653Z,100078.34
2018-12-22T20:57:07.370Z,100085.56
2018-12-22T20:59:34.947Z,100085.33
2018-12-22T21:02:02.563Z,100081.33
2018-12-22T21:04:30.186Z,100075.05
2018-12-22T21:06:57.761Z,100074.70
2018-12-22T21:09:25.322Z,100075.55
2018-12-22T21:11:53.113Z,100076.76
2018-12-22T21:14:20.700Z,100057.73
2018-12-22T21:16:48.298Z,100070.95
2018-12-22T21:19:16.034Z,100062.48
2018-12-22T21:21:43.635Z,100064.27
2018-12-22T21:24:11.213Z,100075.47
2018-12-22T21:26:38.968Z,100085.09
2018-12-22T21:29:06.555Z,100075.30
2018-12-22T21:31:34.083Z,100077.16
2018-12-22T21:34:01.829Z,100066.82
2018-12-22T21:36:29.390Z,100067.02
2018-12-22T21:38:56.918Z,100064.77
2018-12-22T21:41:24.599Z,100067.16
2018-12-22T21:43:52.190Z,100064.81
2018-12-22T21:46:19.782Z,100064.59
2018-12-22T21:48:47.689Z,100052.05
2018-12-22T21:51:15.249Z,100052.97
2018-12-22T21:53:42.809Z,100052.83
2018-12-22T21:56:10.398Z,100053.09
2018-12-22T21:58:37.959Z,100035.88
2018-12-22T22:01:05.527Z,100029.27
2018-12-22T22:03:33.228Z,100022.44
2018-12-22T22:06:00.797Z,100017.09
2018-12-22T22:08:28.322Z,100012.70
2018-12-22T22:10:55.969Z,100021.73
2018-12-22T22:13:23.853Z,100023.84
2018-12-22T22:15:51.433Z,100025.20
2018-12-22T22:18:19.306Z,100023.94
2018-12-22T22:20:46.856Z,100037.76
2018-12-22T22:23:18.864Z,100033.87
2018-12-22T22:25:42.199Z,100037.60
2018-12-22T22:28:09.774Z,100035.58
2018-12-22T22:30:37.360Z,100029.77
2018-12-22T22:33:04.986Z,100024.77
2018-12-22T22:35:32.536Z,100026.58
2018-12-22T22:38:00.114Z,100021.45
2018-12-22T22:40:27.741Z,100018.84
2018-12-22T22:42:55.310Z,100018.91
2018-12-22T22:45:22.925Z,100018.97
2018-12-22T22:47:50.546Z,100008.91
2018-12-22T22:50:18.093Z,100005.97
2018-12-22T22:52:45.639Z,100001.42
2018-12-22T22:55:13.562Z,99998.62
2018-12-22T22:57:41.188Z,99989.64
2018-12-22T23:00:08.823Z,99992.17
2018-12-22T23:02:53.621Z,99993.64
2018-12-22T23:05:21.417Z,99986.44
2018-12-22T23:07:48.948Z,99990.06
2018-12-22T23:10:16.500Z,99985.63
2018-12-22T23:13:03.385Z,99980.06
2018-12-22T23:15:30.945Z,100000.90
2018-12-22T23:17:58.508Z,100009.08
2018-12-22T23:20:26.166Z,100004.27
2018-12-22T23:22:53.748Z,99999.61
2018-12-22T23:25:21.320Z,99997.77
2018-12-22T23:27:49.129Z,99991.66
2018-12-22T23:30:16.678Z,99988.71
2018-12-22T23:32:44.232Z,99992.94
2018-12-22T23:35:12.139Z,99985.50
2018-12-22T23:37:39.669Z,99973.78
2018-12-22T23:40:07.265Z,99974.88
2018-12-22T23:42:35.901Z,99962.05
2018-12-22T23:45:03.613Z,99964.85
2018-12-22T23:47:31.092Z,99969.92
2018-12-22T23:49:58.776Z,99981.91
2018-12-22T23:52:26.342Z,99989.08
2018-12-22T23:54:53.877Z,99992.31
2018-12-22T23:57:21.546Z,99994.63
2018-12-22T23:59:49.097Z,99996.39
